sensor_id;sensor_type;location;lat;lon;timestamp;pressure;altitude;pressure_sealevel;temperature;humidity
48882;BME280;57063;51.406;-2.402;2022-12-07T06:22:36;101235.44;;;-1.32;100.00
48882;BME280;57063;51.406;-2.402;2022-12-07T06:27:43;101260.72;;;-1.38;100.00
48882;BME280;57063;51.406;-2.402;2022-12-07T06:30:09;101263.25;;;-1.38;100.00
48882;BME280;57063;51.406;-2.402;2022-12-07T06:32:36;101235.28;;;-1.65;100.00
48882;BME280;57063;51.406;-2.402;2022-12-07T06:35:22;101242.03;;;-1.61;100.00
48882;BME280;57063;51.406;-2.402;2022-12-07T06:38:11;101229.31;;;-1.74;100.00
48882;BME280;57063;51.406;-2.402;2022-12-07T06:40:49;101227.66;;;-1.68;100.00
48882;BME280;57063;51.406;-2.402;2022-12-07T06:43:30;101232.78;;;-1.58;100.00
48882;BME280;57063;51.406;-2.402;2022-12-07T06:49:05;101231.09;;;-1.57;100.00
48882;BME280;57063;51.406;-2.402;2022-12-07T06:51:42;101266.59;;;-1.42;100.00
48882;BME280;57063;51.406;-2.402;2022-12-07T07:21:26;101263.84;;;-1.85;100.00
48882;BME280;57063;51.406;-2.402;2022-12-07T07:24:26;101284.97;;;-1.77;100.00
48882;BME280;57063;51.406;-2.402;2022-12-07T07:50:03;101246.94;;;-1.89;100.00
48882;BME280;57063;51.406;-2.402;2022-12-07T08:30:12;101272.47;;;-1.54;100.00
48882;BME280;57063;51.406;-2.402;2022-12-07T08:36:58;101274.72;;;-1.97;100.00
48882;BME280;57063;51.406;-2.402;2022-12-07T08:39:52;101281.56;;;-1.85;100.00
48882;BME280;57063;51.406;-2.402;2022-12-07T10:03:45;101266.56;;;3.65;95.71
48882;BME280;57063;51.406;-2.402;2022-12-07T10:06:14;101263.28;;;3.57;90.14
48882;BME280;57063;51.406;-2.402;2022-12-07T10:08:42;101290.56;;;3.55;90.00
48882;BME280;57063;51.406;-2.402;2022-12-07T10:11:09;101265.22;;;3.42;90.63
48882;BME280;57063;51.406;-2.402;2022-12-07T10:13:44;101284.47;;;3.63;86.87
48882;BME280;57063;51.406;-2.402;2022-12-07T10:18:53;101244.19;;;3.25;84.47
48882;BME280;57063;51.406;-2.402;2022-12-07T10:21:25;101276.72;;;3.70;86.83
48882;BME280;57063;51.406;-2.402;2022-12-07T10:24:03;101265.97;;;3.48;85.86
48882;BME280;57063;51.406;-2.402;2022-12-07T10:26:39;101239.31;;;3.10;88.35
48882;BME280;57063;51.406;-2.402;2022-12-07T10:29:16;101279.16;;;3.17;88.55
48882;BME280;57063;51.406;-2.402;2022-12-07T10:31:44;101254.69;;;3.04;87.83
48882;BME280;57063;51.406;-2.402;2022-12-07T10:34:34;101238.50;;;3.08;88.66
48882;BME280;57063;51.406;-2.402;2022-12-07T10:39:57;101222.47;;;3.55;86.31
48882;BME280;57063;51.406;-2.402;2022-12-07T10:42:30;101250.69;;;4.47;83.50
48882;BME280;57063;51.406;-2.402;2022-12-07T10:47:51;101237.53;;;4.65;80.46
48882;BME280;57063;51.406;-2.402;2022-12-07T10:50:54;101238.75;;;5.66;75.45
48882;BME280;57063;51.406;-2.402;2022-12-07T11:02:56;101187.97;;;5.47;75.56
48882;BME280;57063;51.406;-2.402;2022-12-07T11:07:42;101184.03;;;7.48;69.48
48882;BME280;57063;51.406;-2.402;2022-12-07T11:10:19;101210.41;;;7.53;69.07
48882;BME280;57063;51.406;-2.402;2022-12-07T11:21:21;101183.66;;;10.27;56.85
48882;BME280;57063;51.406;-2.402;2022-12-07T11:24:01;101179.94;;;11.97;51.46
48882;BME280;57063;51.406;-2.402;2022-12-07T11:34:48;101188.97;;;13.03;48.30
48882;BME280;57063;51.406;-2.402;2022-12-07T11:37:34;101169.13;;;12.38;49.22
48882;BME280;57063;51.406;-2.402;2022-12-07T11:40:03;101176.56;;;11.43;51.04
48882;BME280;57063;51.406;-2.402;2022-12-07T11:42:37;101155.94;;;10.52;54.47
48882;BME280;57063;51.406;-2.402;2022-12-07T11:48:02;101180.28;;;9.65;57.17
48882;BME280;57063;51.406;-2.402;2022-12-07T11:53:26;101171.72;;;8.31;61.63
48882;BME280;57063;51.406;-2.402;2022-12-07T12:06:38;101137.56;;;7.02;66.55
48882;BME280;57063;51.406;-2.402;2022-12-07T12:15:25;101157.28;;;6.72;67.12
48882;BME280;57063;51.406;-2.402;2022-12-07T12:20:41;101146.22;;;6.11;69.02
48882;BME280;57063;51.406;-2.402;2022-12-07T12:27:05;101116.03;;;5.89;70.14
48882;BME280;57063;51.406;-2.402;2022-12-07T12:42:03;101117.63;;;5.61;72.54
48882;BME280;57063;51.406;-2.402;2022-12-07T12:45:02;101126.75;;;5.38;73.61
48882;BME280;57063;51.406;-2.402;2022-12-07T12:54:58;101108.44;;;5.19;75.48
48882;BME280;57063;51.406;-2.402;2022-12-07T12:57:31;101098.38;;;5.11;76.01
48882;BME280;57063;51.406;-2.402;2022-12-07T13:08:42;101051.84;;;4.61;77.67
48882;BME280;57063;51.406;-2.402;2022-12-07T13:11:55;101065.84;;;4.45;79.34
48882;BME280;57063;51.406;-2.402;2022-12-07T13:23:12;101040.47;;;4.36;79.43
48882;BME280;57063;51.406;-2.402;2022-12-07T13:25:51;101037.34;;;4.24;78.80
48882;BME280;57063;51.406;-2.402;2022-12-07T13:28:20;101028.91;;;4.19;79.75
48882;BME280;57063;51.406;-2.402;2022-12-07T13:30:58;101018.75;;;4.16;79.70
48882;BME280;57063;51.406;-2.402;2022-12-07T13:33:48;101022.94;;;4.20;78.92
48882;BME280;57063;51.406;-2.402;2022-12-07T13:39:56;101011.41;;;4.01;78.98
48882;BME280;57063;51.406;-2.402;2022-12-07T13:42:27;101004.34;;;4.14;78.70
48882;BME280;57063;51.406;-2.402;2022-12-07T13:44:55;101018.91;;;4.10;78.77
48882;BME280;57063;51.406;-2.402;2022-12-07T13:50:31;100996.38;;;3.87;80.54
48882;BME280;57063;51.406;-2.402;2022-12-07T13:53:00;101004.78;;;3.92;80.43
48882;BME280;57063;51.406;-2.402;2022-12-07T13:55:27;101011.44;;;3.99;81.50
48882;BME280;57063;51.406;-2.402;2022-12-07T13:57:54;101028.16;;;4.14;80.82
48882;BME280;57063;51.406;-2.402;2022-12-07T14:00:25;101014.91;;;3.97;81.35
48882;BME280;57063;51.406;-2.402;2022-12-07T14:03:03;101003.88;;;3.95;82.42
48882;BME280;57063;51.406;-2.402;2022-12-07T14:05:31;101010.34;;;4.11;81.51
48882;BME280;57063;51.406;-2.402;2022-12-07T14:08:03;100969.28;;;3.80;81.58
48882;BME280;57063;51.406;-2.402;2022-12-07T14:10:38;101012.50;;;3.91;83.13
48882;BME280;57063;51.406;-2.402;2022-12-07T14:15:53;101003.28;;;3.83;83.23
48882;BME280;57063;51.406;-2.402;2022-12-07T14:18:39;100967.81;;;3.70;82.61
48882;BME280;57063;51.406;-2.402;2022-12-07T14:21:17;100961.06;;;3.65;83.11
48882;BME280;57063;51.406;-2.402;2022-12-07T14:24:07;100955.13;;;3.65;82.73
48882;BME280;57063;51.406;-2.402;2022-12-07T14:26:40;100975.31;;;3.77;83.57
48882;BME280;57063;51.406;-2.402;2022-12-07T14:31:51;100963.50;;;3.73;83.76
48882;BME280;57063;51.406;-2.402;2022-12-07T14:34:20;100952.00;;;3.52;85.01
48882;BME280;57063;51.406;-2.402;2022-12-07T14:36:54;100975.56;;;3.65;84.08
48882;BME280;57063;51.406;-2.402;2022-12-07T14:39:47;100942.03;;;3.40;84.76
48882;BME280;57063;51.406;-2.402;2022-12-07T14:42:36;100948.84;;;3.39;83.80
48882;BME280;57063;51.406;-2.402;2022-12-07T15:51:57;100906.56;;;1.03;100.00
48882;BME280;57063;51.406;-2.402;2022-12-07T15:54:59;100904.16;;;0.88;100.00
48882;BME280;57063;51.406;-2.402;2022-12-07T15:58:23;100894.09;;;0.80;100.00
48882;BME280;57063;51.406;-2.402;2022-12-07T16:01:19;100910.28;;;0.71;100.00
48882;BME280;57063;51.406;-2.402;2022-12-07T16:03:48;100930.53;;;0.79;100.00
48882;BME280;57063;51.406;-2.402;2022-12-07T16:06:33;100928.84;;;0.75;100.00
48882;BME280;57063;51.406;-2.402;2022-12-07T16:09:26;100914.66;;;0.52;100.00
48882;BME280;57063;51.406;-2.402;2022-12-07T16:12:00;100892.94;;;0.16;100.00
48882;BME280;57063;51.406;-2.402;2022-12-07T16:14:33;100911.63;;;0.04;100.00
48882;BME280;57063;51.406;-2.402;2022-12-07T16:17:02;100899.03;;;-0.13;100.00
48882;BME280;57063;51.406;-2.402;2022-12-07T16:19:59;100887.38;;;-0.38;100.00
48882;BME280;57063;51.406;-2.402;2022-12-07T16:22:51;100888.28;;;-0.53;100.00
48882;BME280;57063;51.406;-2.402;2022-12-07T16:25:19;100893.34;;;-0.56;100.00
48882;BME280;57063;51.406;-2.402;2022-12-07T16:27:45;100897.66;;;-0.72;100.00
48882;BME280;57063;51.406;-2.402;2022-12-07T16:30:42;100893.50;;;-0.93;100.00
48882;BME280;57063;51.406;-2.402;2022-12-07T16:39:09;100896.09;;;-1.19;100.00
48882;BME280;57063;51.406;-2.402;2022-12-07T16:41:35;100877.53;;;-1.32;100.00
48882;BME280;57063;51.406;-2.402;2022-12-07T16:44:24;100877.50;;;-1.09;100.00
48882;BME280;57063;51.406;-2.402;2022-12-07T16:46:53;100870.72;;;-1.04;100.00
48882;BME280;57063;51.406;-2.402;2022-12-07T16:52:30;100892.66;;;-0.94;100.00
48882;BME280;57063;51.406;-2.402;2022-12-07T16:55:04;100869.88;;;-0.97;100.00
48882;BME280;57063;51.406;-2.402;2022-12-07T17:00:13;100869.09;;;-1.30;100.00
48882;BME280;57063;51.406;-2.402;2022-12-07T17:08:13;100852.28;;;-1.70;100.00
48882;BME280;57063;51.406;-2.402;2022-12-07T17:10:45;100853.94;;;-1.66;100.00
48882;BME280;57063;51.406;-2.402;2022-12-07T17:13:16;100863.22;;;-1.76;100.00
48882;BME280;57063;51.406;-2.402;2022-12-07T17:16:05;100841.28;;;-1.71;100.00
48882;BME280;57063;51.406;-2.402;2022-12-07T17:18:33;100860.72;;;-1.65;100.00
48882;BME280;57063;51.406;-2.402;2022-12-07T17:21:25;100856.47;;;-1.74;100.00
48882;BME280;57063;51.406;-2.402;2022-12-07T17:24:05;100866.59;;;-1.71;100.00
48882;BME280;57063;51.406;-2.402;2022-12-07T17:29:17;100835.41;;;-1.84;100.00
48882;BME280;57063;51.406;-2.402;2022-12-07T20:12:18;100731.69;;;-2.74;100.00
48882;BME280;57063;51.406;-2.402;2022-12-07T20:18:48;100756.13;;;-2.60;100.00
48882;BME280;57063;51.406;-2.402;2022-12-07T20:21:48;100723.25;;;-2.81;100.00
48882;BME280;57063;51.406;-2.402;2022-12-07T20:24:24;100715.63;;;-2.93;100.00
48882;BME280;57063;51.406;-2.402;2022-12-07T20:29:48;100719.00;;;-2.99;100.00
48882;BME280;57063;51.406;-2.402;2022-12-07T20:32:15;100735.84;;;-2.95;100.00
48882;BME280;57063;51.406;-2.402;2022-12-07T20:34:46;100739.22;;;-2.91;100.00
48882;BME280;57063;51.406;-2.402;2022-12-07T20:37:48;100722.34;;;-3.08;100.00
48882;BME280;57063;51.406;-2.402;2022-12-07T20:40:14;100751.88;;;-2.90;100.00
48882;BME280;57063;51.406;-2.402;2022-12-07T20:42:42;100722.34;;;-3.11;100.00
48882;BME280;57063;51.406;-2.402;2022-12-07T20:45:08;100729.94;;;-3.03;100.00
48882;BME280;57063;51.406;-2.402;2022-12-07T20:47:35;100708.84;;;-3.19;100.00
48882;BME280;57063;51.406;-2.402;2022-12-07T20:50:02;100698.72;;;-3.30;100.00
48882;BME280;57063;51.406;-2.402;2022-12-07T20:52:28;100691.03;;;-3.51;100.00
48882;BME280;57063;51.406;-2.402;2022-12-07T20:54:54;100718.00;;;-3.39;100.00
48882;BME280;57063;51.406;-2.402;2022-12-07T20:57:20;100699.44;;;-3.54;100.00
48882;BME280;57063;51.406;-2.402;2022-12-07T20:59:45;100701.94;;;-3.63;100.00
48882;BME280;57063;51.406;-2.402;2022-12-07T21:02:12;100727.28;;;-3.43;100.00
48882;BME280;57063;51.406;-2.402;2022-12-07T21:04:39;100681.66;;;-3.81;100.00
48882;BME280;57063;51.406;-2.402;2022-12-07T21:07:05;100718.75;;;-3.68;100.00
48882;BME280;57063;51.406;-2.402;2022-12-07T21:09:30;100700.13;;;-3.85;100.00
48882;BME280;57063;51.406;-2.402;2022-12-07T21:11:56;100693.41;;;-3.90;100.00
48882;BME280;57063;51.406;-2.402;2022-12-07T21:14:21;100695.06;;;-3.89;100.00
48882;BME280;57063;51.406;-2.402;2022-12-07T21:16:47;100698.41;;;-3.96;100.00
48882;BME280;57063;51.406;-2.402;2022-12-07T21:19:13;100689.13;;;-4.04;100.00
48882;BME280;57063;51.406;-2.402;2022-12-07T21:21:38;100698.38;;;-3.99;100.00
48882;BME280;57063;51.406;-2.402;2022-12-07T21:24:05;100679.81;;;-4.12;100.00
48882;BME280;57063;51.406;-2.402;2022-12-07T21:26:33;100684.84;;;-4.10;100.00
48882;BME280;57063;51.406;-2.402;2022-12-07T21:29:00;100688.28;;;-4.03;100.00
48882;BME280;57063;51.406;-2.402;2022-12-07T21:31:26;100708.50;;;-3.93;100.00
48882;BME280;57063;51.406;-2.402;2022-12-07T21:33:52;100708.53;;;-3.90;100.00
48882;BME280;57063;51.406;-2.402;2022-12-07T21:36:20;100690.81;;;-3.99;100.00
48882;BME280;57063;51.406;-2.402;2022-12-07T21:38:46;100674.84;;;-4.01;100.00
48882;BME280;57063;51.406;-2.402;2022-12-07T21:41:25;100663.06;;;-4.02;100.00
48882;BME280;57063;51.406;-2.402;2022-12-07T21:43:52;100668.13;;;-3.96;100.00
48882;BME280;57063;51.406;-2.402;2022-12-07T21:46:22;100667.38;;;-3.84;100.00
48882;BME280;57063;51.406;-2.402;2022-12-07T21:48:53;100700.34;;;-3.49;100.00
48882;BME280;57063;51.406;-2.402;2022-12-07T21:51:20;100695.28;;;-3.46;100.00
48882;BME280;57063;51.406;-2.402;2022-12-07T21:53:46;100669.16;;;-3.54;100.00
48882;BME280;57063;51.406;-2.402;2022-12-07T21:56:18;100692.03;;;-3.17;100.00
48882;BME280;57063;51.406;-2.402;2022-12-07T21:58:44;100688.66;;;-3.16;100.00
48882;BME280;57063;51.406;-2.402;2022-12-07T22:01:39;100670.97;;;-3.25;100.00
48882;BME280;57063;51.406;-2.402;2022-12-07T22:04:06;100656.72;;;-3.02;100.00
48882;BME280;57063;51.406;-2.402;2022-12-07T22:06:33;100644.94;;;-2.99;100.00
48882;BME280;57063;51.406;-2.402;2022-12-07T22:08:59;100669.38;;;-2.80;100.00
48882;BME280;57063;51.406;-2.402;2022-12-07T22:11:25;100639.88;;;-2.99;100.00
48882;BME280;57063;51.406;-2.402;2022-12-07T22:13:50;100639.03;;;-3.02;100.00
48882;BME280;57063;51.406;-2.402;2022-12-07T22:16:34;100660.94;;;-2.68;100.00
48882;BME280;57063;51.406;-2.402;2022-12-07T22:19:00;100665.16;;;-2.75;100.00
48882;BME280;57063;51.406;-2.402;2022-12-07T22:21:26;100658.44;;;-2.85;100.00
48882;BME280;57063;51.406;-2.402;2022-12-07T22:23:51;100633.16;;;-3.07;100.00
48882;BME280;57063;51.406;-2.402;2022-12-07T22:26:18;100627.25;;;-3.07;100.00
48882;BME280;57063;51.406;-2.402;2022-12-07T22:28:44;100633.09;;;-3.28;100.00
48882;BME280;57063;51.406;-2.402;2022-12-07T22:31:12;100616.22;;;-3.51;100.00
48882;BME280;57063;51.406;-2.402;2022-12-07T22:33:39;100660.81;;;-3.34;100.00
48882;BME280;57063;51.406;-2.402;2022-12-07T22:36:08;100606.06;;;-3.68;100.00
48882;BME280;57063;51.406;-2.402;2022-12-07T22:38:35;100619.56;;;-3.52;100.00
48882;BME280;57063;51.406;-2.402;2022-12-07T22:41:08;100649.91;;;-3.30;100.00
48882;BME280;57063;51.406;-2.402;2022-12-07T22:43:33;100633.09;;;-3.39;100.00
48882;BME280;57063;51.406;-2.402;2022-12-07T22:45:59;100647.44;;;-3.16;100.00
48882;BME280;57063;51.406;-2.402;2022-12-07T22:48:26;100619.63;;;-3.32;100.00
48882;BME280;57063;51.406;-2.402;2022-12-07T22:50:53;100622.16;;;-3.33;100.00
48882;BME280;57063;51.406;-2.402;2022-12-07T22:53:20;100607.84;;;-3.43;100.00
48882;BME280;57063;51.406;-2.402;2022-12-07T22:55:46;100633.09;;;-3.22;100.00
48882;BME280;57063;51.406;-2.402;2022-12-07T22:58:11;100628.91;;;-3.20;100.00
48882;BME280;57063;51.406;-2.402;2022-12-07T23:00:37;100607.84;;;-3.40;100.00
48882;BME280;57063;51.406;-2.402;2022-12-07T23:03:02;100601.09;;;-3.51;100.00
48882;BME280;57063;51.406;-2.402;2022-12-07T23:05:28;100629.66;;;-3.55;100.00
48882;BME280;57063;51.406;-2.402;2022-12-07T23:07:54;100627.97;;;-3.56;100.00
48882;BME280;57063;51.406;-2.402;2022-12-07T23:10:20;100600.13;;;-3.82;100.00
48882;BME280;57063;51.406;-2.402;2022-12-07T23:12:46;100610.22;;;-3.80;100.00
48882;BME280;57063;51.406;-2.402;2022-12-07T23:15:33;100624.53;;;-3.76;100.00
48882;BME280;57063;51.406;-2.402;2022-12-07T23:17:58;100584.91;;;-4.05;100.00
48882;BME280;57063;51.406;-2.402;2022-12-07T23:20:24;100601.78;;;-3.95;100.00
48882;BME280;57063;51.406;-2.402;2022-12-07T23:22:49;100599.25;;;-3.95;100.00
48882;BME280;57063;51.406;-2.402;2022-12-07T23:25:15;100568.06;;;-4.17;100.00
48882;BME280;57063;51.406;-2.402;2022-12-07T23:27:40;100567.25;;;-4.11;100.00
48882;BME280;57063;51.406;-2.402;2022-12-07T23:30:06;100579.00;;;-4.09;100.00
48882;BME280;57063;51.406;-2.402;2022-12-07T23:32:32;100592.50;;;-3.99;100.00
48882;BME280;57063;51.406;-2.402;2022-12-07T23:34:57;100555.44;;;-4.15;100.00
48882;BME280;57063;51.406;-2.402;2022-12-07T23:37:23;100579.84;;;-4.08;100.00
48882;BME280;57063;51.406;-2.402;2022-12-07T23:39:48;100552.00;;;-4.30;100.00
48882;BME280;57063;51.406;-2.402;2022-12-07T23:42:14;100573.94;;;-4.16;100.00
48882;BME280;57063;51.406;-2.402;2022-12-07T23:44:39;100579.81;;;-4.16;100.00
48882;BME280;57063;51.406;-2.402;2022-12-07T23:47:05;100573.03;;;-4.24;100.00
48882;BME280;57063;51.406;-2.402;2022-12-07T23:49:30;100572.16;;;-4.33;100.00
48882;BME280;57063;51.406;-2.402;2022-12-07T23:51:56;100551.94;;;-4.45;100.00
48882;BME280;57063;51.406;-2.402;2022-12-07T23:54:21;100553.63;;;-4.44;100.00
48882;BME280;57063;51.406;-2.402;2022-12-07T23:56:46;100565.56;;;-4.06;100.00
48882;BME280;57063;51.406;-2.402;2022-12-07T23:59:12;100554.72;;;-3.87;100.00
